Startpagina
METAR-TAF:

METAR-TAF

Vliegvelden :

Bhavnagar, India

breedte: 21-45-08N, lengte: 72-11-07E, hoogte: 6 m

Actueel weer

Dit bericht is 24 minuten geleden gemaakt, om 12:00 UTC
Wind 5 kt uit het oostnoordoosten
Temperatuur 36°C
Vochtigheid 19%
Druk 1009 hPa
Zicht: 6000 m

METAR: VABV 251200Z 06005KT 6000 NSC 36/09 Q1009

Tijdstip: 17:54 (12:24 UTC)

Verwachting

Dit bericht is 1 uur en het 24 minuten geleden gemaakt, om 11:00 UTC
Verwachting geldig van 25 om 12 UTC tot 25 om 21 UTC
Wind 12 kt uit het oostnoordoosten
Zicht: 5000 m
rook
Wijzigt naar
van 25 om 14 UTC tot 25 om 16 UTC
Wind 10 kt uit het noorden

TAF: VABV 251100Z 2512/2521 07012KT 5000 FU NSC BECMG 2514/2516 36010KT

Waarnemingen en weersverwachtingen van meer dan 4000 vliegvelden (METAR en TAF).

De beschikbare stations zijn de gele en rode punten op de kaart.

Ga met uw muis naar het station om de naam te zien.

Klik dan om waarnemingen en weersverwachtingen te zien.

kaart wijzigen: klik op de groene knoppen met een zwart kruis om in te zoomen, op de groene knop met een streepje om uit te zoomen of op de groene pijlen voor aangrenzende kaarten.


METAR-TAF: